createdAt,value
2019-05-03T00:02:07.017Z,68.60
2019-05-03T00:04:39.258Z,68.60
2019-05-03T00:07:09.273Z,68.40
2019-05-03T00:09:39.138Z,68.50
2019-05-03T00:12:09.042Z,68.50
2019-05-03T00:14:41.685Z,68.40
2019-05-03T00:17:11.835Z,68.40
2019-05-03T00:19:42.210Z,68.40
2019-05-03T00:22:13.029Z,68.40
2019-05-03T00:24:42.917Z,68.40
2019-05-03T00:27:12.729Z,68.40
2019-05-03T00:29:42.604Z,68.50
2019-05-03T00:32:12.568Z,68.40
2019-05-03T00:34:52.979Z,68.40
2019-05-03T00:37:24.421Z,68.30
2019-05-03T00:39:55.874Z,68.40
2019-05-03T00:42:25.689Z,68.30
2019-05-03T00:44:55.562Z,68.30
2019-05-03T00:47:25.361Z,68.30
2019-05-03T00:49:55.253Z,68.40
2019-05-03T00:52:25.132Z,68.30
2019-05-03T00:54:55.005Z,68.40
2019-05-03T00:57:24.809Z,69.10
2019-05-03T00:59:54.613Z,68.20
2019-05-03T01:02:26.295Z,68.30
2019-05-03T01:04:55.925Z,68.30
2019-05-03T01:07:25.807Z,68.20
2019-05-03T01:09:55.632Z,68.20
2019-05-03T01:12:25.509Z,68.10
2019-05-03T01:14:57.201Z,68.10
2019-05-03T01:17:27.095Z,68.10
2019-05-03T01:19:56.978Z,68.10
2019-05-03T01:22:26.872Z,68.80
2019-05-03T01:24:56.734Z,67.90
2019-05-03T01:27:26.606Z,67.90
2019-05-03T01:29:56.872Z,67.90
2019-05-03T01:32:26.751Z,68.00
2019-05-03T01:34:56.490Z,67.90
2019-05-03T01:37:26.301Z,67.90
2019-05-03T01:39:57.176Z,67.90
2019-05-03T01:42:27.953Z,67.90
2019-05-03T01:44:57.834Z,67.90
2019-05-03T01:47:32.594Z,68.00
2019-05-03T01:50:04.102Z,67.90
2019-05-03T01:52:35.549Z,67.80
2019-05-03T01:55:06.925Z,67.80
2019-05-03T01:57:36.801Z,67.40
2019-05-03T02:00:11.816Z,67.80
2019-05-03T02:03:01.659Z,68.10
2019-05-03T02:05:33.377Z,67.80
2019-05-03T02:08:03.228Z,67.80
2019-05-03T02:10:33.101Z,67.50
2019-05-03T02:13:02.966Z,67.80
2019-05-03T02:15:32.877Z,67.30
2019-05-03T02:18:02.787Z,67.80
2019-05-03T02:20:32.713Z,67.80
2019-05-03T02:23:02.900Z,67.80
2019-05-03T02:25:33.039Z,67.90
2019-05-03T02:28:02.813Z,67.80
2019-05-03T02:30:33.340Z,67.80
2019-05-03T02:33:04.313Z,67.80
2019-05-03T02:35:34.359Z,67.80
2019-05-03T02:38:04.706Z,67.80
2019-05-03T02:40:34.590Z,67.80
2019-05-03T02:43:06.028Z,67.80
2019-05-03T02:45:52.846Z,67.90
2019-05-03T02:48:45.526Z,67.90
2019-05-03T02:51:15.730Z,67.80
2019-05-03T02:53:45.962Z,67.80
2019-05-03T02:56:22.152Z,67.90
2019-05-03T02:58:47.501Z,67.90
2019-05-03T03:01:17.914Z,68.00
2019-05-03T03:03:48.402Z,67.90
2019-05-03T03:06:20.057Z,67.90
2019-05-03T03:08:51.309Z,67.90
2019-05-03T03:11:25.879Z,67.90
2019-05-03T03:13:57.274Z,68.10
2019-05-03T03:16:28.750Z,68.00
2019-05-03T03:19:00.967Z,67.90
2019-05-03T03:21:35.997Z,68.00
2019-05-03T03:24:08.721Z,67.90
2019-05-03T03:26:43.300Z,67.90
2019-05-03T03:29:15.714Z,68.10
2019-05-03T03:31:50.222Z,68.10
2019-05-03T03:34:27.507Z,68.00
2019-05-03T03:37:04.338Z,68.10
2019-05-03T03:39:26.933Z,68.10
2019-05-03T03:41:57.412Z,68.10
2019-05-03T03:44:28.402Z,68.10
2019-05-03T03:47:00.229Z,68.10
2019-05-03T03:49:32.225Z,68.20
2019-05-03T03:52:06.150Z,68.20
2019-05-03T03:54:37.926Z,68.20
2019-05-03T03:57:09.863Z,69.00
2019-05-03T03:59:39.782Z,68.30
2019-05-03T04:02:09.634Z,68.30
2019-05-03T04:04:40.039Z,68.30
2019-05-03T04:07:10.315Z,68.30
2019-05-03T04:09:40.601Z,68.50
2019-05-03T04:12:10.499Z,68.40
2019-05-03T04:14:45.320Z,68.40
2019-05-03T04:17:26.305Z,68.40
2019-05-03T04:19:58.315Z,68.40
2019-05-03T04:22:28.211Z,68.40
2019-05-03T04:24:58.150Z,69.20
2019-05-03T04:27:28.033Z,68.50
2019-05-03T04:29:57.957Z,68.60
2019-05-03T04:32:28.944Z,68.70
2019-05-03T04:34:59.138Z,68.60
2019-05-03T04:37:29.027Z,68.60
2019-05-03T04:39:58.927Z,68.60
2019-05-03T04:42:28.714Z,68.60
2019-05-03T04:44:58.538Z,68.70
2019-05-03T04:47:28.422Z,68.70
2019-05-03T04:49:58.301Z,68.70
2019-05-03T04:52:28.116Z,68.70
2019-05-03T04:55:00.677Z,68.70
2019-05-03T04:57:40.034Z,69.40
2019-05-03T05:00:02.059Z,68.80
2019-05-03T05:02:31.864Z,68.90
2019-05-03T05:05:01.629Z,68.90
2019-05-03T05:07:31.477Z,68.90
2019-05-03T05:10:01.260Z,68.90
2019-05-03T05:12:31.055Z,69.00
2019-05-03T05:15:00.889Z,69.10
2019-05-03T05:17:41.357Z,69.00
2019-05-03T05:20:16.745Z,69.10
2019-05-03T05:22:46.579Z,69.30
2019-05-03T05:25:17.994Z,69.60
2019-05-03T05:28:01.676Z,69.10
2019-05-03T05:30:32.185Z,69.30
2019-05-03T05:33:02.041Z,69.30
2019-05-03T05:35:31.724Z,69.20
2019-05-03T05:38:01.593Z,69.30
2019-05-03T05:40:31.437Z,69.50
2019-05-03T05:43:01.272Z,69.50
2019-05-03T05:45:31.167Z,69.50
2019-05-03T05:48:05.611Z,69.50
2019-05-03T05:50:37.036Z,69.40
2019-05-03T05:53:06.790Z,69.50
2019-05-03T05:55:55.029Z,69.50
2019-05-03T05:58:30.641Z,69.50
2019-05-03T06:01:05.537Z,69.50
2019-05-03T06:03:35.479Z,69.60
2019-05-03T06:06:06.851Z,69.60
2019-05-03T06:08:38.281Z,69.60
2019-05-03T06:11:12.451Z,69.60
2019-05-03T06:13:59.346Z,69.60
2019-05-03T06:16:36.597Z,69.80
2019-05-03T06:19:08.003Z,70.00
2019-05-03T06:21:39.452Z,70.10
2019-05-03T06:24:19.888Z,70.20
2019-05-03T06:26:51.347Z,70.10
2019-05-03T06:29:21.233Z,70.10
2019-05-03T06:32:10.956Z,70.00
2019-05-03T06:34:40.881Z,70.10
2019-05-03T06:37:14.829Z,70.10
2019-05-03T06:39:47.561Z,70.00
2019-05-03T06:42:19.351Z,70.00
2019-05-03T06:44:49.050Z,70.90
2019-05-03T06:47:18.909Z,70.10
2019-05-03T06:49:48.793Z,70.10
2019-05-03T06:52:19.839Z,70.10
2019-05-03T06:54:50.210Z,70.10
2019-05-03T06:57:21.130Z,70.10
2019-05-03T07:00:05.201Z,71.00
2019-05-03T07:02:37.699Z,70.10
2019-05-03T07:05:18.627Z,70.00
2019-05-03T07:07:50.119Z,70.10
2019-05-03T07:10:35.277Z,70.00
2019-05-03T07:13:08.747Z,70.00
2019-05-03T07:15:37.398Z,69.80
2019-05-03T07:18:07.296Z,69.70
2019-05-03T07:20:44.910Z,69.60
2019-05-03T07:23:15.586Z,69.70
2019-05-03T07:25:45.873Z,69.40
2019-05-03T07:28:16.597Z,69.40
2019-05-03T07:30:46.467Z,69.20
2019-05-03T07:33:25.375Z,69.20
2019-05-03T07:36:00.519Z,69.10
2019-05-03T07:38:30.323Z,68.90
2019-05-03T07:41:00.147Z,68.90
2019-05-03T07:43:29.947Z,68.90
2019-05-03T07:45:59.714Z,69.00
2019-05-03T07:48:29.519Z,68.90
2019-05-03T07:50:59.367Z,68.80
2019-05-03T07:53:29.168Z,68.50
2019-05-03T07:56:05.187Z,68.50
2019-05-03T07:58:36.423Z,68.40
2019-05-03T08:01:09.996Z,68.20
2019-05-03T08:03:39.322Z,68.80
2019-05-03T08:06:09.167Z,68.10
2019-05-03T08:08:39.032Z,68.00
2019-05-03T08:11:08.813Z,68.30
2019-05-03T08:13:38.678Z,67.90
2019-05-03T08:16:08.526Z,67.90
2019-05-03T08:18:39.384Z,68.00
2019-05-03T08:21:09.221Z,67.90
2019-05-03T08:23:39.098Z,68.00
2019-05-03T08:26:08.939Z,67.80
2019-05-03T08:28:38.711Z,67.60
2019-05-03T08:31:23.992Z,67.50
2019-05-03T08:34:10.207Z,68.30
2019-05-03T08:37:01.380Z,67.40
2019-05-03T08:39:31.183Z,67.40
2019-05-03T08:42:04.642Z,67.40
2019-05-03T08:44:35.411Z,67.10
2019-05-03T08:47:05.603Z,67.00
2019-05-03T08:49:35.476Z,66.90
2019-05-03T08:52:05.566Z,66.90
2019-05-03T08:54:36.779Z,66.80
2019-05-03T08:57:06.603Z,66.90
2019-05-03T08:59:36.427Z,67.00
2019-05-03T09:02:13.802Z,66.90
2019-05-03T09:04:42.444Z,66.80
2019-05-03T09:07:09.417Z,66.90
2019-05-03T09:09:40.844Z,66.80
2019-05-03T09:12:10.679Z,66.80
2019-05-03T09:14:45.450Z,66.50
2019-05-03T09:17:15.121Z,66.50
2019-05-03T09:19:45.329Z,66.30
2019-05-03T09:22:15.334Z,66.20
2019-05-03T09:24:45.626Z,66.40
2019-05-03T09:27:15.617Z,65.90
2019-05-03T09:29:46.199Z,65.90
2019-05-03T09:32:16.231Z,66.70
2019-05-03T09:34:46.117Z,65.80
2019-05-03T09:37:15.824Z,65.70
2019-05-03T09:39:45.671Z,65.40
2019-05-03T09:42:15.650Z,65.40
2019-05-03T09:44:46.561Z,65.50
2019-05-03T09:47:16.389Z,65.50
2019-05-03T09:49:46.247Z,65.50
2019-05-03T09:52:16.309Z,65.40
2019-05-03T09:54:47.908Z,65.40
2019-05-03T09:57:17.727Z,65.50
2019-05-03T09:59:56.115Z,65.50
2019-05-03T10:02:19.188Z,65.30
2019-05-03T10:04:49.443Z,65.20
2019-05-03T10:07:19.292Z,65.10
2019-05-03T10:09:49.141Z,65.20
2019-05-03T10:12:20.640Z,65.20
2019-05-03T10:14:50.407Z,65.10
2019-05-03T10:17:35.192Z,65.00
2019-05-03T10:20:08.096Z,65.00
2019-05-03T10:22:37.936Z,64.50
2019-05-03T10:25:07.918Z,64.30
2019-05-03T10:27:46.544Z,64.30
2019-05-03T10:30:19.872Z,64.20
2019-05-03T10:32:54.026Z,64.20
2019-05-03T10:35:24.643Z,64.30
2019-05-03T10:37:54.951Z,64.10
2019-05-03T10:40:26.655Z,64.10
2019-05-03T10:42:56.464Z,64.00
2019-05-03T10:45:28.096Z,64.00
2019-05-03T10:47:58.751Z,63.70
2019-05-03T10:50:28.624Z,63.70
2019-05-03T10:53:00.107Z,63.50
2019-05-03T10:55:29.916Z,63.70
2019-05-03T10:58:07.151Z,63.80
2019-05-03T11:00:48.144Z,63.80
2019-05-03T11:03:10.032Z,63.80
2019-05-03T11:05:39.843Z,63.80
2019-05-03T11:08:10.424Z,63.90
2019-05-03T11:10:40.208Z,64.00
2019-05-03T11:13:09.983Z,63.90
2019-05-03T11:15:40.955Z,63.90
2019-05-03T11:18:10.807Z,63.70
2019-05-03T11:20:40.511Z,63.80
2019-05-03T11:23:10.497Z,63.70
2019-05-03T11:25:40.338Z,64.50
2019-05-03T11:28:20.903Z,63.70
2019-05-03T11:30:56.454Z,63.70
2019-05-03T11:33:27.483Z,63.60
2019-05-03T11:36:11.251Z,63.40
2019-05-03T11:38:42.673Z,63.20
2019-05-03T11:41:12.558Z,63.20
2019-05-03T11:43:44.273Z,63.20
2019-05-03T11:46:13.858Z,63.30
2019-05-03T11:48:45.526Z,63.30
2019-05-03T11:51:15.337Z,63.30
2019-05-03T11:53:46.191Z,63.10
2019-05-03T11:56:15.979Z,63.10
2019-05-03T11:58:45.868Z,63.10
2019-05-03T12:01:20.103Z,63.30
2019-05-03T12:03:48.829Z,63.30
2019-05-03T12:06:18.607Z,63.10
2019-05-03T12:08:48.383Z,63.10
2019-05-03T12:11:18.229Z,63.30
2019-05-03T12:14:01.434Z,63.40
2019-05-03T12:16:32.450Z,63.60
2019-05-03T12:18:54.161Z,63.60
2019-05-03T12:21:23.882Z,63.60
2019-05-03T12:23:56.056Z,63.70
2019-05-03T12:26:30.031Z,63.80
2019-05-03T12:28:56.829Z,63.80
2019-05-03T12:31:36.578Z,63.80
2019-05-03T12:33:58.091Z,63.90
2019-05-03T12:36:27.875Z,63.70
2019-05-03T12:38:57.747Z,63.60
2019-05-03T12:41:27.595Z,63.40
2019-05-03T12:43:57.367Z,63.50
2019-05-03T12:46:27.229Z,63.50
2019-05-03T12:48:57.073Z,63.50
2019-05-03T12:51:26.914Z,63.30
2019-05-03T12:53:56.769Z,63.50
2019-05-03T12:56:32.753Z,63.40
2019-05-03T12:59:05.967Z,63.40
2019-05-03T13:01:46.358Z,63.30
2019-05-03T13:04:33.020Z,63.10
2019-05-03T13:07:19.764Z,63.10
2019-05-03T13:09:49.532Z,62.90
2019-05-03T13:12:20.959Z,62.80
2019-05-03T13:14:50.827Z,62.70
2019-05-03T13:17:37.161Z,62.50
2019-05-03T13:20:12.876Z,62.40
2019-05-03T13:22:45.744Z,62.20
2019-05-03T13:25:15.665Z,62.10
2019-05-03T13:27:46.326Z,62.10
2019-05-03T13:30:17.035Z,61.80
2019-05-03T13:32:46.920Z,61.60
2019-05-03T13:35:16.802Z,61.60
2019-05-03T13:37:46.824Z,61.30
2019-05-03T13:40:16.676Z,61.30
2019-05-03T13:42:56.102Z,61.40
2019-05-03T13:45:18.052Z,61.30
2019-05-03T13:47:47.792Z,61.30
2019-05-03T13:50:17.652Z,61.10
2019-05-03T13:52:47.448Z,61.20
2019-05-03T13:55:17.322Z,61.30
2019-05-03T13:57:47.023Z,61.30
2019-05-03T14:00:17.638Z,61.30
2019-05-03T14:02:47.510Z,61.20
2019-05-03T14:05:17.368Z,61.10
2019-05-03T14:07:47.251Z,61.10
2019-05-03T14:10:18.231Z,61.10
2019-05-03T14:12:48.090Z,61.00
2019-05-03T14:15:17.922Z,61.10
2019-05-03T14:17:47.763Z,60.50
2019-05-03T14:20:19.296Z,61.00
2019-05-03T14:22:50.675Z,60.90
2019-05-03T14:25:20.529Z,60.90
2019-05-03T14:27:50.264Z,60.80
2019-05-03T14:30:20.204Z,60.80
2019-05-03T14:32:50.067Z,60.70
2019-05-03T14:35:19.946Z,60.60
2019-05-03T14:37:49.711Z,60.50
2019-05-03T14:40:19.564Z,60.40
2019-05-03T14:42:49.439Z,60.30
2019-05-03T14:45:19.960Z,60.30
2019-05-03T14:47:49.830Z,60.10
2019-05-03T14:50:19.679Z,60.00
2019-05-03T14:52:50.560Z,59.90
2019-05-03T14:55:21.996Z,59.90
2019-05-03T14:57:55.322Z,59.80
2019-05-03T15:00:45.240Z,60.00
2019-05-03T15:03:16.813Z,60.20
2019-05-03T15:05:46.709Z,60.00
2019-05-03T15:08:16.621Z,59.80
2019-05-03T15:10:47.059Z,59.00
2019-05-03T15:13:18.603Z,59.50
2019-05-03T15:15:48.551Z,59.40
2019-05-03T15:18:20.241Z,59.20
2019-05-03T15:20:51.715Z,58.90
2019-05-03T15:23:25.227Z,58.70
2019-05-03T15:25:56.346Z,58.70
2019-05-03T15:28:27.934Z,58.50
2019-05-03T15:31:05.236Z,58.50
2019-05-03T15:33:38.276Z,58.20
2019-05-03T15:36:09.799Z,58.20
2019-05-03T15:38:44.516Z,58.20
2019-05-03T15:41:18.877Z,58.20
2019-05-03T15:43:58.023Z,58.30
2019-05-03T15:46:35.561Z,58.40
2019-05-03T15:49:06.247Z,58.40
2019-05-03T15:51:36.173Z,58.30
2019-05-03T15:54:06.115Z,58.30
2019-05-03T15:56:36.015Z,57.90
2019-05-03T15:59:05.892Z,58.10
2019-05-03T16:01:35.759Z,57.90
2019-05-03T16:04:05.670Z,57.80
2019-05-03T16:06:35.548Z,58.10
2019-05-03T16:09:06.971Z,57.80
2019-05-03T16:11:36.985Z,57.90
2019-05-03T16:14:06.925Z,57.90
2019-05-03T16:16:36.790Z,57.80
2019-05-03T16:19:06.689Z,57.60
2019-05-03T16:21:36.834Z,57.70
2019-05-03T16:24:06.869Z,57.80
2019-05-03T16:26:38.446Z,57.60
2019-05-03T16:29:15.053Z,57.70
2019-05-03T16:31:45.143Z,57.70
2019-05-03T16:34:15.095Z,57.50
2019-05-03T16:36:45.521Z,57.50
2019-05-03T16:39:17.067Z,57.60
2019-05-03T16:41:47.072Z,57.70
2019-05-03T16:44:17.008Z,57.70
2019-05-03T16:46:46.942Z,57.60
2019-05-03T16:49:16.867Z,57.50
2019-05-03T16:51:46.764Z,57.50
2019-05-03T16:54:16.650Z,57.50
2019-05-03T16:56:46.539Z,57.30
2019-05-03T16:59:17.370Z,57.60
2019-05-03T17:01:47.574Z,57.50
2019-05-03T17:04:25.257Z,57.50
2019-05-03T17:06:59.980Z,57.60
2019-05-03T17:09:35.362Z,57.50
2019-05-03T17:12:07.131Z,57.40
2019-05-03T17:14:37.001Z,57.40
2019-05-03T17:17:07.294Z,57.40
2019-05-03T17:19:37.698Z,57.50
2019-05-03T17:22:08.751Z,57.50
2019-05-03T17:24:38.637Z,57.80
2019-05-03T17:27:08.937Z,57.80
2019-05-03T17:29:44.413Z,57.80
2019-05-03T17:32:15.280Z,57.80
2019-05-03T17:34:45.480Z,57.80
2019-05-03T17:37:16.648Z,57.80
2019-05-03T17:39:54.713Z,57.80
2019-05-03T17:42:26.285Z,57.80
2019-05-03T17:44:56.192Z,58.00
2019-05-03T17:47:26.123Z,58.00
2019-05-03T17:49:55.991Z,58.00
2019-05-03T17:52:45.081Z,58.00
2019-05-03T17:55:16.711Z,58.10
2019-05-03T17:57:52.363Z,58.10
2019-05-03T18:00:26.637Z,58.10
2019-05-03T18:02:57.269Z,58.30
2019-05-03T18:05:38.854Z,58.30
2019-05-03T18:08:19.172Z,58.20
2019-05-03T18:10:50.637Z,58.30
2019-05-03T18:13:20.560Z,58.40
2019-05-03T18:15:50.457Z,58.50
2019-05-03T18:18:20.305Z,58.50
2019-05-03T18:20:50.209Z,58.50
2019-05-03T18:23:20.108Z,58.60
2019-05-03T18:25:49.992Z,58.70
2019-05-03T18:28:19.879Z,58.80
2019-05-03T18:30:49.780Z,58.70
2019-05-03T18:33:19.685Z,58.70
2019-05-03T18:35:49.581Z,58.80
2019-05-03T18:38:19.510Z,58.80
2019-05-03T18:40:49.425Z,58.90
2019-05-03T18:43:34.487Z,58.80
2019-05-03T18:46:08.314Z,58.90
2019-05-03T18:48:38.127Z,58.90
2019-05-03T18:51:08.016Z,58.90
2019-05-03T18:53:37.873Z,59.00
2019-05-03T18:56:16.575Z,59.10
2019-05-03T18:58:46.463Z,59.20
2019-05-03T19:01:18.260Z,59.40
2019-05-03T19:03:50.696Z,59.50
2019-05-03T19:06:20.513Z,59.70
2019-05-03T19:09:07.228Z,59.90
2019-05-03T19:11:55.074Z,59.90
2019-05-03T19:14:26.649Z,60.10
2019-05-03T19:17:10.295Z,60.40
2019-05-03T19:19:41.791Z,60.60
2019-05-03T19:22:11.689Z,60.80
2019-05-03T19:24:41.546Z,60.80
2019-05-03T19:27:12.676Z,61.00
2019-05-03T19:29:42.496Z,61.10
2019-05-03T19:32:16.711Z,61.10
2019-05-03T19:34:51.051Z,61.10
2019-05-03T19:37:17.892Z,61.20
2019-05-03T19:39:47.743Z,61.30
2019-05-03T19:42:17.575Z,61.30
2019-05-03T19:44:47.432Z,61.30
2019-05-03T19:47:18.763Z,61.40
2019-05-03T19:49:50.121Z,61.40
2019-05-03T19:52:21.855Z,61.50
2019-05-03T19:54:51.704Z,61.60
2019-05-03T19:57:24.474Z,62.60
2019-05-03T19:59:57.927Z,61.70
2019-05-03T20:02:45.388Z,61.80
2019-05-03T20:05:25.084Z,61.80
2019-05-03T20:08:08.141Z,62.10
2019-05-03T20:10:38.005Z,62.00
2019-05-03T20:13:07.859Z,62.10
2019-05-03T20:15:41.009Z,62.10
2019-05-03T20:18:12.169Z,62.30
2019-05-03T20:20:42.048Z,62.30
2019-05-03T20:23:12.013Z,62.40
2019-05-03T20:25:42.171Z,62.50
2019-05-03T20:28:12.080Z,62.50
2019-05-03T20:30:42.010Z,62.60
2019-05-03T20:33:14.795Z,62.50
2019-05-03T20:39:25.592Z,62.50
2019-05-03T20:41:56.952Z,62.60
2019-05-03T20:44:28.388Z,62.50
2019-05-03T20:46:59.845Z,62.50
2019-05-03T20:49:29.707Z,62.50
2019-05-03T20:51:59.585Z,62.60
2019-05-03T20:54:29.464Z,62.70
2019-05-03T20:56:59.353Z,62.80
2019-05-03T20:59:41.941Z,63.00
2019-05-03T21:02:08.527Z,63.30
2019-05-03T21:04:44.521Z,63.50
2019-05-03T21:07:17.477Z,63.70
2019-05-03T21:09:47.457Z,63.70
2019-05-03T21:12:31.457Z,64.00
2019-05-03T21:15:24.621Z,64.20
2019-05-03T21:18:07.898Z,64.50
2019-05-03T21:20:39.359Z,64.80
2019-05-03T21:23:10.858Z,65.10
2019-05-03T21:26:05.512Z,65.40
2019-05-03T21:28:16.164Z,65.50
2019-05-03T21:30:48.397Z,65.70
2019-05-03T21:33:18.297Z,65.90
2019-05-03T21:35:48.262Z,66.10
2019-05-03T21:38:18.144Z,66.30
2019-05-03T21:40:48.053Z,66.20
2019-05-03T21:43:17.937Z,66.40
2019-05-03T21:45:49.384Z,66.50
2019-05-03T21:48:26.542Z,66.50
2019-05-03T21:50:56.472Z,66.50
2019-05-03T21:53:26.303Z,66.50
2019-05-03T21:55:56.181Z,66.80
2019-05-03T21:58:26.050Z,66.90
2019-05-03T22:01:00.601Z,67.10
2019-05-03T22:03:32.022Z,67.20
2019-05-03T22:06:01.912Z,67.30
2019-05-03T22:08:31.828Z,67.40
2019-05-03T22:11:01.769Z,67.40
2019-05-03T22:13:37.899Z,66.60
2019-05-03T22:16:09.432Z,67.30
2019-05-03T22:18:55.136Z,67.10
2019-05-03T22:21:38.097Z,67.10
2019-05-03T22:24:46.552Z,67.00
2019-05-03T22:27:24.686Z,67.20
2019-05-03T22:30:12.848Z,67.10
2019-05-03T22:32:56.617Z,67.30
2019-05-03T22:35:35.894Z,67.50
2019-05-03T22:38:09.341Z,67.50
2019-05-03T22:40:49.102Z,67.50
2019-05-03T22:43:19.030Z,67.60
2019-05-03T22:45:48.967Z,67.50
2019-05-03T22:48:20.670Z,67.50
2019-05-03T22:50:50.601Z,67.50
2019-05-03T22:53:25.230Z,67.50
2019-05-03T22:55:54.861Z,67.70
2019-05-03T22:58:24.982Z,68.60
2019-05-03T23:00:58.593Z,67.70
2019-05-03T23:03:37.611Z,67.70
2019-05-03T23:06:18.979Z,67.70
2019-05-03T23:08:42.195Z,68.40
2019-05-03T23:11:12.154Z,67.70
2019-05-03T23:13:44.555Z,67.50
2019-05-03T23:16:17.493Z,67.50
2019-05-03T23:18:54.819Z,67.60
2019-05-03T23:21:36.851Z,67.50
2019-05-03T23:24:10.530Z,67.30
2019-05-03T23:26:42.329Z,68.20
2019-05-03T23:29:12.279Z,67.40
2019-05-03T23:31:42.240Z,67.30
2019-05-03T23:34:16.622Z,67.10
2019-05-03T23:36:46.631Z,67.10
2019-05-03T23:39:25.055Z,67.10
2019-05-03T23:42:00.528Z,67.20
2019-05-03T23:44:36.594Z,67.20
2019-05-03T23:47:15.654Z,67.20
2019-05-03T23:49:45.654Z,67.30
2019-05-03T23:52:26.583Z,67.20
2019-05-03T23:55:01.428Z,67.40
2019-05-03T23:57:32.201Z,67.30
